EPWR/WRO METAR and TAF weather

Enter ICAO airport designator
Station Type Date Time Source
EPWR METAR 2020/02/16 20:00 UTC NOAA

EPWR 162000Z 17017KT CAVOK 10/01 Q1011


Station Type Date Time Source
EPWR Decoded METAR 2020/02/16 20:00 UTC NOAA

Wroclaw Ii, Poland (EPWR) 51-06N 016-53E 121M
Feb 16, 2020 - 03:00 PM EST / 2020.02.16 2000 UTC
Wind: from the S (170 degrees) at 20 MPH (17 KT):0
Visibility: greater than 7 mile(s):0
Temperature: 50 F (10 C)
Dew Point: 33 F (1 C)
Relative Humidity: 53%
Pressure (altimeter): 29.85 in. Hg (1011 hPa)
ob: EPWR 162000Z 17017KT CAVOK 10/01 Q1011
cycle: 20

Station Type Date Time Source
EPWR TAF 2020/02/16 18:36 UTC NOAA

TAF EPWR 161730Z 1618/1718 18015KT CAVOK
TEMPO 1618/1706 20020G35KT
BECMG 1707/1710 27007KT

Example: see airport list